Time;durP1;ratioP1;P1;durP2;ratioP2;P2;SDS_P1;SDS_P2;PMS_P1;PMS_P2;Temp;Humidity;BMP_temperature;BMP_pressure;BME280_temperature;BME280_humidity;BME280_pressure;Samples;Min_cycle;Max_cycle;Signal;HPM_P1;HPM_P2
2021/12/28 00:01:32;;;;;;;15.35;13.15;;;6.10;99.90;;;;;;5056098;28;20036;-77
2021/12/28 00:03:58;;;;;;;17.70;14.98;;;6.10;99.90;;;;;;5056105;28;20408;-77
2021/12/28 00:06:24;;;;;;;19.17;14.95;;;6.10;99.90;;;;;;5056360;28;20052;-77
2021/12/28 00:08:50;;;;;;;16.80;14.65;;;6.10;99.90;;;;;;5056461;28;20040;-77
2021/12/28 00:11:16;;;;;;;18.90;14.75;;;6.10;99.90;;;;;;5056286;28;20040;-77
2021/12/28 00:13:43;;;;;;;18.05;15.15;;;6.10;99.90;;;;;;5039376;28;20032;-77
2021/12/28 00:16:28;;;;;;;22.85;16.98;;;6.10;99.90;;;;;;5056260;28;20051;-77
2021/12/28 00:18:53;;;;;;;18.83;15.90;;;6.20;99.90;;;;;;5056353;28;20618;-77
2021/12/28 00:21:19;;;;;;;23.20;18.00;;;6.20;99.90;;;;;;5059266;28;20050;-77
2021/12/28 00:23:45;;;;;;;22.65;18.50;;;6.20;99.90;;;;;;5059897;28;20038;-77
2021/12/28 00:26:13;;;;;;;21.20;16.98;;;6.20;99.90;;;;;;5043632;28;20041;-77
2021/12/28 00:28:39;;;;;;;21.00;17.90;;;6.20;99.90;;;;;;5060690;28;20094;-77
2021/12/28 00:31:05;;;;;;;20.02;17.52;;;6.20;99.90;;;;;;5060020;28;20080;-77
2021/12/28 00:33:31;;;;;;;24.52;18.65;;;6.20;99.90;;;;;;5043363;28;20123;-77
2021/12/28 00:35:57;;;;;;;21.23;17.05;;;6.20;99.90;;;;;;5060094;28;20072;-77
2021/12/28 00:38:26;;;;;;;21.42;18.23;;;6.20;99.90;;;;;;5060373;28;20569;-77
2021/12/28 00:40:55;;;;;;;19.40;17.13;;;6.30;99.90;;;;;;5044154;28;20131;-77
2021/12/28 00:43:21;;;;;;;23.15;20.00;;;6.20;99.90;;;;;;5044041;28;20420;-77
2021/12/28 00:45:47;;;;;;;20.85;18.23;;;6.20;99.90;;;;;;5059930;28;20044;-76
2021/12/28 00:48:14;;;;;;;28.00;21.05;;;6.30;99.90;;;;;;5042867;28;20069;-77
2021/12/28 00:50:39;;;;;;;23.35;20.23;;;6.30;99.90;;;;;;5043052;28;20131;-77
2021/12/28 00:53:06;;;;;;;25.95;20.95;;;6.30;99.90;;;;;;5059600;28;20115;-77
2021/12/28 00:55:32;;;;;;;23.42;20.52;;;6.30;99.90;;;;;;5043146;28;20041;-77
2021/12/28 00:57:57;;;;;;;25.65;22.05;;;6.30;99.90;;;;;;5059280;28;20046;-77
2021/12/28 01:00:29;;;;;;;23.65;19.05;;;6.30;99.90;;;;;;5043039;28;20463;-77
2021/12/28 01:02:56;;;;;;;26.13;22.08;;;6.30;99.90;;;;;;5060046;28;20052;-77
2021/12/28 01:05:23;;;;;;;30.58;23.75;;;6.30;99.90;;;;;;5042447;28;20550;-77
2021/12/28 01:07:49;;;;;;;27.23;21.75;;;6.40;99.90;;;;;;5059040;28;20491;-77
2021/12/28 01:10:20;;;;;;;33.42;25.08;;;6.40;99.90;;;;;;5059253;28;20087;-77
2021/12/28 01:12:49;;;;;;;29.58;24.00;;;6.30;99.90;;;;;;5059473;28;20033;-77
2021/12/28 01:15:16;;;;;;;30.30;24.50;;;6.40;99.90;;;;;;5059083;28;20047;-77
2021/12/28 01:17:42;;;;;;;31.63;24.13;;;6.40;99.90;;;;;;5058545;28;20089;-78
2021/12/28 01:20:10;;;;;;;36.80;25.83;;;6.40;99.90;;;;;;5057787;28;20119;-77
2021/12/28 01:22:36;;;;;;;32.67;24.98;;;6.40;99.90;;;;;;5058006;28;20076;-77
2021/12/28 01:25:03;;;;;;;30.23;26.23;;;6.40;99.90;;;;;;5057779;28;20523;-77
2021/12/28 01:27:28;;;;;;;39.15;29.08;;;6.40;99.90;;;;;;5057941;28;20170;-77
2021/12/28 01:29:54;;;;;;;35.47;27.60;;;6.50;99.90;;;;;;5041597;28;20131;-75
2021/12/28 01:32:19;;;;;;;35.78;27.10;;;6.50;99.90;;;;;;5057405;28;20489;-75
2021/12/28 01:34:45;;;;;;;37.03;27.45;;;6.50;99.90;;;;;;5058263;28;20041;-75
2021/12/28 01:37:11;;;;;;;38.80;27.70;;;6.50;99.90;;;;;;5040399;28;20036;-75
2021/12/28 01:39:38;;;;;;;45.67;31.23;;;6.50;99.90;;;;;;5056970;28;20047;-76
2021/12/28 01:42:06;;;;;;;76.80;37.38;;;6.50;99.90;;;;;;5056788;28;20072;-75
2021/12/28 01:44:33;;;;;;;44.17;29.10;;;6.50;99.90;;;;;;5056671;28;20049;-75
2021/12/28 01:46:59;;;;;;;33.13;27.35;;;6.60;99.90;;;;;;5057077;28;20048;-75
2021/12/28 01:49:24;;;;;;;53.80;31.92;;;6.50;99.90;;;;;;5056754;28;20036;-75
2021/12/28 01:51:50;;;;;;;55.40;31.15;;;6.60;99.90;;;;;;5056816;28;20102;-75
2021/12/28 01:54:16;;;;;;;50.55;32.38;;;6.60;99.90;;;;;;5040242;28;20052;-75
2021/12/28 01:56:44;;;;;;;60.90;34.53;;;6.60;99.90;;;;;;5056826;28;20094;-77
2021/12/28 01:59:18;;;;;;;68.75;33.60;;;6.60;99.90;;;;;;5040430;28;20033;-77
2021/12/28 02:01:44;;;;;;;49.30;30.75;;;6.70;99.90;;;;;;5056747;28;20076;-77
2021/12/28 02:04:23;;;;;;;66.10;34.10;;;6.70;99.90;;;;;;5056288;28;20047;-77
2021/12/28 02:06:50;;;;;;;53.25;31.95;;;6.70;99.90;;;;;;5040319;28;20423;-77
2021/12/28 02:09:16;;;;;;;54.53;32.88;;;6.70;99.90;;;;;;5039926;28;20040;-77
2021/12/28 02:11:42;;;;;;;59.35;35.72;;;6.70;99.90;;;;;;5056480;28;20044;-77
2021/12/28 02:14:09;;;;;;;41.97;29.65;;;6.70;99.90;;;;;;5039494;28;20386;-77
2021/12/28 02:16:37;;;;;;;89.05;35.85;;;6.70;99.90;;;;;;5056145;28;20044;-77
2021/12/28 02:19:03;;;;;;;58.53;32.42;;;6.80;99.90;;;;;;5056642;28;20048;-77
2021/12/28 02:21:31;;;;;;;71.70;34.50;;;6.70;99.90;;;;;;5057386;28;20040;-77
2021/12/28 02:24:02;;;;;;;55.30;32.67;;;6.70;99.90;;;;;;5057235;28;20101;-77
2021/12/28 02:26:27;;;;;;;69.68;35.20;;;6.70;99.90;;;;;;5057861;28;20040;-77
2021/12/28 02:28:53;;;;;;;83.35;36.25;;;6.70;99.90;;;;;;5057614;28;20123;-77
2021/12/28 02:31:19;;;;;;;49.92;32.08;;;6.80;99.90;;;;;;5057318;28;20405;-77
2021/12/28 02:33:48;;;;;;;69.05;34.97;;;6.80;99.90;;;;;;5057292;28;20044;-77
2021/12/28 02:36:14;;;;;;;83.45;37.72;;;6.80;99.90;;;;;;5057537;28;20119;-77
2021/12/28 02:38:40;;;;;;;53.67;32.88;;;6.80;99.90;;;;;;5057451;28;20043;-77
2021/12/28 02:41:07;;;;;;;80.30;35.85;;;6.80;99.90;;;;;;5057068;28;20036;-77
2021/12/28 02:43:33;;;;;;;68.75;34.55;;;6.80;99.90;;;;;;5057085;28;20043;-77
2021/12/28 02:46:02;;;;;;;57.72;33.45;;;6.80;99.90;;;;;;5057444;28;20040;-77
2021/12/28 02:48:29;;;;;;;90.30;37.97;;;6.80;99.90;;;;;;5057171;28;20036;-77
2021/12/28 02:51:02;;;;;;;91.97;37.75;;;6.80;99.90;;;;;;5057443;28;20044;-77
2021/12/28 02:53:28;;;;;;;70.22;37.13;;;6.90;99.90;;;;;;5057152;28;20120;-77
2021/12/28 02:55:55;;;;;;;77.38;39.55;;;6.80;99.90;;;;;;5040111;28;20099;-77
2021/12/28 02:58:36;;;;;;;62.78;35.63;;;6.90;99.90;;;;;;5057074;28;20045;-77
2021/12/28 03:01:08;;;;;;;61.00;36.25;;;6.90;99.90;;;;;;5040451;28;20037;-77
2021/12/28 03:03:35;;;;;;;57.88;34.80;;;6.90;99.90;;;;;;5056839;28;20051;-77
2021/12/28 03:06:03;;;;;;;62.78;36.88;;;6.90;99.90;;;;;;5056767;28;20049;-77
2021/12/28 03:08:30;;;;;;;89.78;40.20;;;6.90;99.90;;;;;;5056730;28;20032;-77
2021/12/28 03:10:56;;;;;;;87.82;41.70;;;6.90;99.90;;;;;;5056659;28;20117;-77
2021/12/28 03:13:26;;;;;;;79.60;39.65;;;6.90;99.90;;;;;;5056984;28;20032;-77
2021/12/28 03:15:53;;;;;;;61.33;36.35;;;6.90;99.90;;;;;;5056503;28;20044;-77
2021/12/28 03:18:19;;;;;;;57.67;36.97;;;7.00;99.90;;;;;;5056367;28;20048;-77
2021/12/28 03:20:45;;;;;;;67.43;37.67;;;7.00;99.90;;;;;;5056215;28;20040;-77
2021/12/28 03:23:15;;;;;;;70.03;38.58;;;7.00;99.90;;;;;;5058950;28;20040;-75
2021/12/28 03:25:40;;;;;;;69.07;36.80;;;7.10;99.90;;;;;;5057270;28;20127;-75
2021/12/28 03:28:06;;;;;;;76.63;38.55;;;7.10;99.90;;;;;;5056943;28;20076;-75
2021/12/28 03:30:32;;;;;;;71.43;37.90;;;7.10;99.90;;;;;;5040386;28;20036;-75
2021/12/28 03:32:58;;;;;;;54.25;34.25;;;7.10;99.90;;;;;;5039757;28;20119;-75
2021/12/28 03:35:24;;;;;;;80.22;38.67;;;7.10;99.90;;;;;;5056830;28;20481;-76
2021/12/28 03:37:50;;;;;;;64.93;35.63;;;7.10;99.90;;;;;;5056648;28;20040;-77
2021/12/28 03:40:16;;;;;;;63.60;35.83;;;7.20;99.90;;;;;;5056452;28;20051;-77
2021/12/28 03:42:42;;;;;;;68.90;35.08;;;7.20;99.90;;;;;;5056807;28;20048;-75
2021/12/28 03:45:09;;;;;;;66.93;35.30;;;7.20;99.90;;;;;;5056342;28;20044;-75
2021/12/28 03:47:35;;;;;;;68.32;36.00;;;7.20;99.90;;;;;;5056432;28;20425;-75
2021/12/28 03:50:03;;;;;;;69.03;36.92;;;7.30;99.90;;;;;;5056603;28;20044;-75
2021/12/28 03:52:28;;;;;;;65.22;34.33;;;7.20;99.90;;;;;;5055950;28;20033;-75
2021/12/28 03:54:54;;;;;;;78.70;36.50;;;7.30;99.90;;;;;;5057249;28;20040;-75
2021/12/28 03:57:19;;;;;;;64.82;34.92;;;7.30;99.90;;;;;;5043995;28;20040;-75
2021/12/28 03:59:45;;;;;;;69.85;37.00;;;7.30;99.90;;;;;;5043981;28;20044;-75
2021/12/28 04:02:11;;;;;;;64.45;35.15;;;7.30;99.90;;;;;;5060043;28;20040;-75
2021/12/28 04:04:37;;;;;;;68.30;34.70;;;7.30;99.90;;;;;;5060385;28;20045;-75
2021/12/28 04:07:06;;;;;;;75.05;36.22;;;7.30;99.90;;;;;;5060117;28;20036;-75
2021/12/28 04:12:16;;;;;;;68.45;36.15;;;7.30;99.90;;;;;;5060409;28;20051;-75
2021/12/28 04:14:45;;;;;;;65.80;36.53;;;7.30;99.90;;;;;;5060184;28;20036;-75
2021/12/28 04:17:11;;;;;;;73.43;38.20;;;7.30;99.90;;;;;;5043079;28;20041;-75
2021/12/28 04:19:37;;;;;;;82.03;39.35;;;7.30;99.90;;;;;;5059853;28;20059;-75
2021/12/28 04:22:03;;;;;;;72.55;36.33;;;7.30;99.90;;;;;;5059035;28;20127;-75
2021/12/28 04:24:29;;;;;;;77.78;38.28;;;7.30;99.90;;;;;;5043232;28;20527;-75
2021/12/28 04:26:54;;;;;;;57.08;35.10;;;7.30;99.90;;;;;;5059835;28;20447;-75
2021/12/28 04:29:20;;;;;;;62.92;34.58;;;7.30;99.90;;;;;;5059704;28;20119;-75
2021/12/28 04:31:46;;;;;;;51.83;33.60;;;7.30;99.90;;;;;;5042804;28;20036;-75
2021/12/28 04:34:11;;;;;;;58.58;34.15;;;7.30;99.90;;;;;;5045606;28;20127;-75
2021/12/28 04:36:37;;;;;;;54.63;33.13;;;7.30;99.90;;;;;;5043221;28;20098;-76
2021/12/28 04:39:05;;;;;;;48.30;32.63;;;7.30;99.90;;;;;;5059454;28;20500;-77
2021/12/28 04:41:31;;;;;;;58.83;33.67;;;7.30;99.90;;;;;;5059246;28;20050;-75
2021/12/28 04:43:59;;;;;;;50.22;33.67;;;7.30;99.90;;;;;;5059268;28;20131;-75
2021/12/28 04:46:25;;;;;;;56.15;33.67;;;7.30;99.90;;;;;;5042538;28;20033;-75
2021/12/28 04:48:50;;;;;;;56.22;33.47;;;7.20;99.90;;;;;;5042638;28;20039;-75
2021/12/28 04:51:16;;;;;;;49.60;32.00;;;7.20;99.90;;;;;;5042637;28;20028;-75
2021/12/28 04:53:41;;;;;;;60.47;33.60;;;7.20;99.90;;;;;;5059330;28;20033;-75
2021/12/28 04:56:07;;;;;;;53.60;31.63;;;7.10;99.90;;;;;;5059237;28;20405;-75
2021/12/28 04:58:33;;;;;;;47.65;29.45;;;7.10;99.90;;;;;;5059225;28;20047;-75
2021/12/28 05:00:59;;;;;;;43.83;29.75;;;7.10;99.90;;;;;;5059252;28;20072;-75
2021/12/28 05:03:24;;;;;;;41.47;29.40;;;7.10;99.90;;;;;;5042454;28;20040;-75
2021/12/28 05:05:51;;;;;;;53.22;30.98;;;7.00;99.90;;;;;;5059082;28;20036;-75
2021/12/28 05:08:19;;;;;;;42.53;27.55;;;7.00;99.90;;;;;;5041704;28;20052;-75
2021/12/28 05:10:46;;;;;;;41.15;26.85;;;7.00;99.90;;;;;;5042179;28;20552;-75
2021/12/28 05:13:11;;;;;;;42.08;27.98;;;7.00;99.90;;;;;;5058794;28;20037;-75
2021/12/28 05:15:38;;;;;;;43.97;27.33;;;7.00;99.90;;;;;;5042081;28;20119;-76
2021/12/28 05:18:04;;;;;;;41.17;27.08;;;6.90;99.90;;;;;;5058865;28;20119;-77
2021/12/28 05:20:30;;;;;;;46.40;27.60;;;6.90;99.90;;;;;;5042012;28;20119;-77
2021/12/28 05:22:56;;;;;;;41.72;26.77;;;6.90;99.90;;;;;;5058633;28;20127;-77
2021/12/28 05:25:22;;;;;;;43.92;27.52;;;6.90;99.90;;;;;;5042263;28;20436;-77
2021/12/28 05:27:47;;;;;;;40.15;26.77;;;6.90;99.90;;;;;;5058523;28;20062;-77
2021/12/28 05:30:13;;;;;;;44.53;25.85;;;6.90;99.90;;;;;;5059046;28;20576;-77
2021/12/28 05:32:39;;;;;;;38.42;25.13;;;6.90;99.90;;;;;;5041383;28;20524;-77
2021/12/28 05:35:06;;;;;;;41.03;26.13;;;6.90;99.90;;;;;;5058618;28;20089;-77
2021/12/28 05:37:32;;;;;;;46.63;26.58;;;6.90;99.90;;;;;;5058352;28;20075;-77
2021/12/28 05:39:58;;;;;;;40.33;25.13;;;6.90;99.90;;;;;;5042226;28;20045;-77
2021/12/28 05:42:25;;;;;;;44.17;26.45;;;6.80;99.90;;;;;;5057889;28;20040;-77
2021/12/28 05:44:50;;;;;;;43.33;26.08;;;6.80;99.90;;;;;;5058261;28;20045;-77
2021/12/28 05:47:16;;;;;;;42.15;25.35;;;6.80;99.90;;;;;;5042052;28;20045;-77
2021/12/28 05:49:42;;;;;;;37.22;24.80;;;6.80;99.90;;;;;;5058426;28;20503;-77
2021/12/28 05:52:08;;;;;;;40.13;25.52;;;6.80;99.90;;;;;;5058299;28;20116;-77
2021/12/28 05:54:34;;;;;;;40.70;25.15;;;6.70;99.90;;;;;;5058179;28;20075;-77
2021/12/28 05:57:00;;;;;;;37.20;24.10;;;6.80;99.90;;;;;;5057882;28;20043;-77
2021/12/28 05:59:26;;;;;;;36.45;24.58;;;6.80;99.90;;;;;;5057917;28;20036;-77
2021/12/28 06:01:51;;;;;;;36.47;23.90;;;6.80;99.90;;;;;;5057863;28;20043;-77
2021/12/28 06:04:17;;;;;;;38.65;23.17;;;6.80;99.90;;;;;;5041274;28;20037;-77
2021/12/28 06:06:42;;;;;;;38.63;25.25;;;6.70;99.90;;;;;;5057885;28;20123;-77
2021/12/28 06:09:08;;;;;;;37.13;23.20;;;6.70;99.90;;;;;;5057572;28;20489;-77
2021/12/28 06:11:34;;;;;;;34.00;21.10;;;6.70;99.90;;;;;;5057665;28;20036;-77
2021/12/28 06:13:59;;;;;;;31.67;21.27;;;6.60;99.90;;;;;;5057570;28;20039;-77
2021/12/28 06:16:25;;;;;;;34.35;21.13;;;6.70;99.90;;;;;;5057334;28;20072;-77
2021/12/28 06:18:50;;;;;;;34.28;21.20;;;6.70;99.90;;;;;;5040979;28;20049;-77
2021/12/28 06:21:16;;;;;;;33.20;20.05;;;6.70;99.90;;;;;;5057673;28;20044;-77
2021/12/28 06:23:42;;;;;;;32.75;19.73;;;6.60;99.90;;;;;;5057044;28;20044;-77
2021/12/28 06:26:08;;;;;;;32.70;20.27;;;6.70;99.90;;;;;;5056985;28;20047;-77
2021/12/28 06:28:34;;;;;;;32.15;19.85;;;6.70;99.90;;;;;;5040327;28;20044;-77
2021/12/28 06:31:00;;;;;;;28.40;18.98;;;6.70;99.90;;;;;;5056220;28;20032;-77
2021/12/28 06:33:26;;;;;;;27.60;18.67;;;6.70;99.90;;;;;;5056380;28;20052;-77
2021/12/28 06:35:54;;;;;;;28.20;18.02;;;6.70;99.90;;;;;;5042222;28;20055;-77
2021/12/28 06:38:20;;;;;;;27.05;18.00;;;6.70;99.90;;;;;;5058705;28;20040;-77
2021/12/28 06:40:46;;;;;;;26.77;17.45;;;6.70;99.90;;;;;;5058720;28;20048;-77
2021/12/28 06:43:12;;;;;;;29.85;18.67;;;6.60;99.90;;;;;;5058994;28;20447;-76
2021/12/28 06:45:38;;;;;;;28.58;16.58;;;6.70;99.90;;;;;;5058192;28;20051;-77
2021/12/28 06:48:04;;;;;;;29.15;17.17;;;6.60;99.90;;;;;;5057731;28;20126;-77
2021/12/28 06:50:29;;;;;;;26.88;17.77;;;6.60;99.90;;;;;;5058571;28;20037;-77
2021/12/28 06:52:55;;;;;;;27.90;16.77;;;6.60;99.90;;;;;;5058833;28;20116;-77
2021/12/28 06:55:20;;;;;;;27.15;16.08;;;6.70;99.90;;;;;;5042566;28;20041;-77
2021/12/28 06:57:46;;;;;;;24.40;17.38;;;6.70;99.90;;;;;;5040972;28;20040;-77
2021/12/28 07:00:16;;;;;;;24.02;15.68;;;6.70;99.90;;;;;;5041359;28;20036;-77
2021/12/28 07:02:42;;;;;;;24.15;15.80;;;6.70;99.90;;;;;;5058459;28;20098;-76
2021/12/28 07:05:09;;;;;;;24.13;15.93;;;6.70;99.90;;;;;;5041524;28;20401;-77
2021/12/28 07:07:35;;;;;;;31.67;17.10;;;6.60;99.90;;;;;;5057332;28;20037;-76
2021/12/28 07:10:00;;;;;;;27.75;16.35;;;6.70;99.90;;;;;;5058074;28;20036;-76
2021/12/28 07:12:26;;;;;;;25.63;15.18;;;6.70;99.90;;;;;;5057042;28;20515;-77
2021/12/28 07:14:53;;;;;;;24.23;15.40;;;6.70;99.90;;;;;;5040298;28;20052;-77
2021/12/28 07:17:18;;;;;;;26.05;14.93;;;6.70;99.90;;;;;;5040612;28;20033;-76
2021/12/28 07:19:46;;;;;;;24.10;13.63;;;6.70;99.90;;;;;;5040800;28;20051;-76
2021/12/28 07:22:11;;;;;;;24.70;13.77;;;6.70;99.90;;;;;;5040593;28;20048;-76
2021/12/28 07:24:37;;;;;;;24.02;14.30;;;6.70;99.90;;;;;;5056908;28;20036;-77
2021/12/28 07:27:03;;;;;;;25.45;12.82;;;6.70;99.90;;;;;;5057182;28;20085;-77
2021/12/28 07:29:29;;;;;;;25.15;12.68;;;6.70;99.90;;;;;;5040831;28;20037;-77
2021/12/28 07:31:54;;;;;;;22.90;12.88;;;6.70;99.90;;;;;;5040813;28;20127;-77
2021/12/28 07:34:20;;;;;;;23.67;12.93;;;6.70;99.90;;;;;;5058084;28;20037;-77
2021/12/28 07:36:46;;;;;;;28.70;13.23;;;6.70;99.90;;;;;;5040972;28;20098;-77
2021/12/28 07:39:12;;;;;;;24.80;12.65;;;6.70;99.90;;;;;;5057245;28;20037;-77
2021/12/28 07:41:37;;;;;;;23.48;13.18;;;6.70;99.90;;;;;;5058482;28;20033;-77
2021/12/28 07:44:04;;;;;;;23.38;12.10;;;6.70;99.90;;;;;;5057131;28;20033;-76
2021/12/28 07:46:30;;;;;;;19.67;10.82;;;6.80;99.90;;;;;;5041781;28;20037;-77
2021/12/28 07:48:55;;;;;;;23.48;12.00;;;6.80;99.90;;;;;;5041359;28;20090;-77
2021/12/28 07:51:21;;;;;;;22.67;11.18;;;6.80;99.90;;;;;;5040992;28;20036;-77
2021/12/28 07:53:46;;;;;;;28.05;11.50;;;6.70;99.90;;;;;;5057063;28;20028;-77
2021/12/28 07:56:12;;;;;;;22.52;12.05;;;6.80;99.90;;;;;;5039682;28;20134;-77
2021/12/28 07:58:38;;;;;;;18.10;10.77;;;6.80;99.90;;;;;;5057050;28;20033;-77
2021/12/28 08:01:04;;;;;;;27.00;11.50;;;6.80;99.90;;;;;;5057351;28;20084;-77
2021/12/28 08:03:29;;;;;;;20.65;10.27;;;6.80;99.90;;;;;;5056782;28;20439;-77
2021/12/28 08:05:55;;;;;;;25.63;10.63;;;6.80;99.90;;;;;;5056308;28;20048;-76
2021/12/28 08:08:22;;;;;;;23.58;10.88;;;6.80;99.90;;;;;;5040416;28;20075;-76
2021/12/28 08:10:48;;;;;;;20.30;10.32;;;6.90;99.90;;;;;;5057514;28;20044;-76
2021/12/28 08:13:14;;;;;;;22.95;11.55;;;6.90;99.90;;;;;;5040273;28;20382;-76
2021/12/28 08:15:39;;;;;;;22.52;9.80;;;6.90;99.90;;;;;;5038792;28;20040;-77
2021/12/28 08:18:07;;;;;;;19.30;10.20;;;6.80;99.90;;;;;;5056203;28;20048;-77
2021/12/28 08:20:33;;;;;;;21.95;9.52;;;6.90;99.90;;;;;;5039324;28;20079;-76
2021/12/28 08:22:59;;;;;;;20.50;9.88;;;6.90;99.90;;;;;;5055162;28;20076;-76
2021/12/28 08:25:26;;;;;;;22.33;10.23;;;6.90;99.90;;;;;;5054870;28;20068;-76
2021/12/28 08:27:52;;;;;;;23.90;9.93;;;6.90;99.90;;;;;;5038321;28;20036;-76
2021/12/28 08:30:20;;;;;;;22.30;9.70;;;6.90;99.90;;;;;;5054792;28;20515;-76
2021/12/28 08:32:46;;;;;;;18.95;9.30;;;6.90;99.90;;;;;;5054657;28;20044;-76
2021/12/28 08:35:13;;;;;;;21.98;9.35;;;6.90;99.90;;;;;;5055121;28;20515;-77
2021/12/28 08:37:39;;;;;;;24.70;9.73;;;6.90;99.90;;;;;;5054739;28;20045;-76
2021/12/28 08:40:07;;;;;;;25.17;9.02;;;6.90;99.90;;;;;;5055211;28;20560;-77
2021/12/28 08:42:33;;;;;;;21.67;9.10;;;6.90;99.90;;;;;;5058133;28;20041;-77
2021/12/28 08:44:58;;;;;;;23.48;9.30;;;6.90;99.90;;;;;;5059074;28;20074;-77
2021/12/28 08:47:27;;;;;;;20.95;9.68;;;6.90;99.90;;;;;;5058720;28;20064;-77
2021/12/28 08:49:57;;;;;;;20.60;8.73;;;6.90;99.90;;;;;;5059017;28;20516;-76
2021/12/28 08:52:23;;;;;;;21.38;10.07;;;6.90;99.90;;;;;;5042066;28;20524;-76
2021/12/28 08:54:49;;;;;;;24.92;8.93;;;6.90;99.90;;;;;;5041602;28;20040;-76
2021/12/28 08:57:16;;;;;;;16.55;8.82;;;7.00;99.90;;;;;;5058455;28;20063;-76
2021/12/28 08:59:42;;;;;;;24.20;8.68;;;7.00;99.90;;;;;;5042040;28;20129;-76
2021/12/28 09:02:08;;;;;;;26.50;9.43;;;7.00;99.90;;;;;;5058697;28;20075;-77
2021/12/28 09:04:36;;;;;;;19.60;8.88;;;7.00;99.90;;;;;;5058687;28;20550;-77
2021/12/28 09:07:02;;;;;;;21.88;8.48;;;7.00;99.90;;;;;;5058597;28;20036;-77
2021/12/28 09:09:28;;;;;;;15.75;7.90;;;7.00;99.90;;;;;;5058004;28;20041;-77
2021/12/28 09:11:54;;;;;;;22.10;8.55;;;7.00;99.90;;;;;;5041483;28;20040;-77
2021/12/28 09:14:19;;;;;;;23.35;8.15;;;7.00;99.90;;;;;;5058019;28;20036;-77
2021/12/28 09:16:45;;;;;;;21.05;8.20;;;7.00;99.90;;;;;;5057927;28;20498;-76
2021/12/28 09:19:10;;;;;;;18.30;7.43;;;7.10;99.90;;;;;;5041446;28;20040;-76
2021/12/28 09:21:36;;;;;;;21.17;8.38;;;7.10;99.90;;;;;;5041158;28;20046;-76
2021/12/28 09:24:02;;;;;;;17.73;8.02;;;7.10;99.90;;;;;;5040963;28;20047;-77
2021/12/28 09:26:27;;;;;;;18.33;7.68;;;7.10;99.90;;;;;;5041210;28;20084;-76
2021/12/28 09:28:53;;;;;;;19.35;7.05;;;7.10;99.90;;;;;;5057882;28;20397;-77
2021/12/28 09:31:19;;;;;;;21.63;7.38;;;7.20;99.90;;;;;;5057875;28;20036;-77
2021/12/28 09:33:44;;;;;;;19.33;7.22;;;7.20;99.90;;;;;;5057473;28;20037;-77
2021/12/28 09:36:14;;;;;;;16.23;6.97;;;7.20;99.90;;;;;;5041348;28;20039;-77
2021/12/28 09:38:41;;;;;;;21.63;7.75;;;7.20;99.90;;;;;;5059544;28;20048;-77
2021/12/28 09:41:06;;;;;;;19.30;7.43;;;7.30;99.90;;;;;;5058920;28;20377;-76
2021/12/28 09:43:32;;;;;;;26.25;7.13;;;7.30;99.90;;;;;;5058467;28;20519;-77
2021/12/28 09:45:59;;;;;;;23.58;7.13;;;7.40;99.90;;;;;;5057398;28;20413;-76
2021/12/28 09:48:24;;;;;;;19.92;7.05;;;7.40;99.90;;;;;;5057817;28;20036;-76
2021/12/28 09:50:50;;;;;;;20.88;6.82;;;7.40;99.90;;;;;;5057763;28;20120;-76
2021/12/28 09:53:16;;;;;;;21.27;7.03;;;7.40;99.90;;;;;;5056673;28;20381;-76
2021/12/28 09:55:42;;;;;;;18.30;6.32;;;7.50;99.90;;;;;;5057528;28;20036;-77
2021/12/28 09:58:08;;;;;;;17.30;6.18;;;7.50;99.90;;;;;;5057751;28;20064;-76
2021/12/28 10:00:34;;;;;;;22.75;7.43;;;7.50;99.90;;;;;;5057605;28;20404;-76
2021/12/28 10:02:59;;;;;;;23.65;7.15;;;7.50;99.90;;;;;;5057859;28;20036;-77
2021/12/28 10:05:26;;;;;;;19.02;6.47;;;7.60;99.90;;;;;;5040696;28;20052;-77
2021/12/28 10:07:58;;;;;;;21.17;6.55;;;7.60;99.90;;;;;;5057103;28;20040;-76
2021/12/28 10:10:31;;;;;;;18.50;6.83;;;7.50;99.90;;;;;;5041446;28;20047;-77
2021/12/28 10:13:00;;;;;;;21.10;7.68;;;7.60;99.90;;;;;;5057349;28;20523;-77
2021/12/28 10:15:30;;;;;;;23.85;6.88;;;7.60;99.90;;;;;;5057684;28;20101;-77
2021/12/28 10:17:58;;;;;;;18.35;6.70;;;7.60;99.90;;;;;;5057573;28;20041;-77
2021/12/28 10:20:29;;;;;;;21.40;7.15;;;7.60;99.90;;;;;;5056958;28;20040;-77
2021/12/28 10:22:58;;;;;;;21.55;6.90;;;7.60;99.90;;;;;;5056574;28;20089;-77
2021/12/28 10:25:28;;;;;;;25.17;7.47;;;7.60;99.90;;;;;;5039802;28;20043;-76
2021/12/28 10:28:04;;;;;;;21.08;7.25;;;7.60;99.90;;;;;;5056696;28;20033;-76
2021/12/28 10:30:40;;;;;;;22.65;7.72;;;7.60;99.90;;;;;;5056971;28;20098;-76
2021/12/28 10:33:09;;;;;;;18.88;6.82;;;7.60;99.90;;;;;;5040040;28;20082;-76
2021/12/28 10:35:38;;;;;;;18.92;7.68;;;7.60;99.90;;;;;;5056051;28;20040;-76
2021/12/28 10:38:07;;;;;;;18.30;6.88;;;7.60;99.90;;;;;;5039651;28;20036;-76
2021/12/28 10:40:41;;;;;;;17.27;7.53;;;7.60;99.90;;;;;;5056136;28;20086;-76
2021/12/28 10:43:16;;;;;;;18.83;7.53;;;7.70;99.90;;;;;;5056322;28;20120;-76
2021/12/28 10:45:45;;;;;;;20.40;7.28;;;7.70;99.90;;;;;;5039234;28;20428;-76
2021/12/28 10:48:19;;;;;;;16.73;7.10;;;7.70;99.90;;;;;;5056252;28;20409;-76
2021/12/28 10:50:48;;;;;;;20.33;7.63;;;7.70;99.90;;;;;;5055921;28;20033;-77
2021/12/28 10:53:21;;;;;;;20.38;8.10;;;7.70;99.90;;;;;;5055639;28;20413;-77
2021/12/28 10:55:54;;;;;;;19.40;7.85;;;7.70;99.90;;;;;;5055644;28;20182;-76
2021/12/28 10:58:21;;;;;;;;;;;7.70;99.90;;;;;;5056280;28;20127;-77
2021/12/28 11:00:47;;;;;;;17.25;7.15;;;7.70;99.90;;;;;;5055837;28;19967;-77
2021/12/28 11:03:13;;;;;;;15.68;7.78;;;7.70;99.90;;;;;;5055457;28;20107;-76
2021/12/28 11:05:39;;;;;;;24.75;8.20;;;7.70;99.90;;;;;;5038306;28;20047;-76
2021/12/28 11:08:08;;;;;;;19.80;8.63;;;7.80;99.90;;;;;;5039285;28;20041;-76
2021/12/28 11:10:39;;;;;;;22.13;8.18;;;7.80;99.90;;;;;;5055988;28;20513;-77
2021/12/28 11:13:04;;;;;;;16.65;8.35;;;7.80;99.90;;;;;;5055748;28;20044;-76
2021/12/28 11:15:36;;;;;;;21.15;8.88;;;7.80;99.90;;;;;;5055667;28;20037;-76
2021/12/28 11:18:42;;;;;;;23.30;8.70;;;7.80;99.90;;;;;;5055806;28;20454;-76
2021/12/28 11:21:42;;;;;;;20.00;9.32;;;7.80;99.90;;;;;;5050831;28;20178;-76
2021/12/28 11:24:10;;;;;;;19.33;9.35;;;7.80;99.90;;;;;;5034132;28;20053;-76
2021/12/28 11:26:38;;;;;;;16.13;9.60;;;7.80;99.90;;;;;;5055607;28;20032;-76
2021/12/28 11:29:13;;;;;;;14.88;8.43;;;7.80;99.90;;;;;;5039335;28;20044;-76
2021/12/28 11:31:41;;;;;;;18.13;9.95;;;7.90;99.90;;;;;;5039074;28;20429;-77
2021/12/28 11:34:30;;;;;;;18.73;9.45;;;7.90;99.90;;;;;;5055038;28;20040;-77
2021/12/28 11:37:03;;;;;;;15.57;9.02;;;7.90;99.90;;;;;;5055222;28;20045;-76
2021/12/28 11:39:35;;;;;;;20.52;9.65;;;7.90;99.90;;;;;;5055868;28;20059;-77
2021/12/28 11:42:02;;;;;;;15.63;8.55;;;7.90;99.90;;;;;;5055255;28;20044;-77
2021/12/28 11:44:29;;;;;;;18.98;9.02;;;7.90;99.90;;;;;;5054943;28;20076;-76
2021/12/28 11:46:58;;;;;;;15.43;7.70;;;7.90;99.90;;;;;;5055357;28;20041;-76
2021/12/28 11:49:27;;;;;;;14.82;7.75;;;7.90;99.90;;;;;;5055738;28;20037;-76
2021/12/28 11:51:55;;;;;;;16.33;9.15;;;7.90;99.90;;;;;;5038761;28;20040;-76
2021/12/28 11:54:23;;;;;;;17.33;8.30;;;7.90;99.90;;;;;;5055467;28;20378;-77
2021/12/28 11:56:52;;;;;;;13.13;8.30;;;8.00;99.90;;;;;;5038735;28;20484;-76
2021/12/28 11:59:22;;;;;;;10.80;8.05;;;8.00;99.90;;;;;;5055131;28;20037;-77
2021/12/28 12:01:51;;;;;;;11.23;7.22;;;8.00;99.90;;;;;;5054987;28;20036;-77
2021/12/28 12:04:32;;;;;;;12.25;7.75;;;8.00;99.90;;;;;;5055207;28;20135;-77
2021/12/28 12:07:14;;;;;;;15.63;7.47;;;8.00;99.90;;;;;;5038166;28;20043;-77
2021/12/28 12:09:49;;;;;;;9.25;6.55;;;8.10;99.90;;;;;;5054743;28;20051;-77
2021/12/28 12:12:19;;;;;;;11.13;7.05;;;8.10;99.90;;;;;;5054682;28;20040;-77
2021/12/28 12:14:51;;;;;;;11.88;7.05;;;8.10;99.90;;;;;;5054881;28;20091;-77
2021/12/28 12:17:37;;;;;;;12.98;7.50;;;8.10;99.90;;;;;;5057581;28;20412;-77
2021/12/28 12:20:18;;;;;;;13.20;7.45;;;8.10;99.90;;;;;;5042005;28;20045;-77
2021/12/28 12:22:48;;;;;;;11.88;8.70;;;8.10;99.90;;;;;;5042010;28;20127;-77
2021/12/28 12:25:43;;;;;;;13.50;9.10;;;8.10;99.90;;;;;;5041600;28;20124;-76
2021/12/28 12:28:10;;;;;;;16.08;9.30;;;8.10;99.90;;;;;;5058343;28;20123;-76
2021/12/28 12:30:49;;;;;;;19.27;8.98;;;8.10;99.90;;;;;;5058250;28;20041;-76
2021/12/28 12:33:17;;;;;;;14.18;8.65;;;8.10;99.90;;;;;;5058184;28;20032;-76
2021/12/28 12:35:43;;;;;;;18.25;9.90;;;8.10;99.90;;;;;;5058144;28;20051;-76
2021/12/28 12:38:12;;;;;;;12.63;9.50;;;8.10;99.90;;;;;;5058088;28;20128;-76
2021/12/28 12:41:08;;;;;;;13.07;9.35;;;8.10;99.90;;;;;;5058342;28;20506;-76
2021/12/28 12:43:37;;;;;;;15.07;8.52;;;8.20;99.90;;;;;;5041304;28;20481;-76
2021/12/28 12:46:12;;;;;;;14.00;9.43;;;8.20;99.90;;;;;;5057934;28;20045;-76